Aérodrome :







RETROUVEZ-NOUS SUR...

 
LOGIN :

S'inscrire | Disclaimer

   EN    FR    IT 

 









Légende :    VFR   VFR Marginal   IFR   IFR Intensif   IFR Très Intensif
Visi : 
Plafond : 
>= 8 km
>= 3000ft
5 à 8 km
1000 à 3000 ft
1500m à 5 km
500 à 1000 ft
800 à 1500m
200 à 500 ft
< 800m
< 200 ft
Symboles :   Orages  Brouillard  Fortes neiges  Fortes précipitations  Vent > 20 kt






- Altitude de l'aérodrome : 1709 ft
- Code IATA : YKL


CYKL - Schefferville

DERNIER METAR :
  • 261500Z AUTO 35008G15KT 9SM CLR M25/M28 A3015 RMK SLP284

METARs EXPIRÉS :
  • 261435Z AUTO 34009G15KT 6SM BR FEW009 M26/M29 A3015 RMK SLP280
  • 261400Z AUTO 35008KT 9SM CLR M26/M29 A3014 RMK SLP275
  • 261300Z AUTO 32006KT 9SM CLR M28/M31 A3013 RMK SLP273

TAF TAF CYKL
Valide du 26 à 14h jusqu'au 27 à 02h UTC


261338Z 2614/2702 34005KT P6SM SKC
TEMPO 2614/2702 5SM IC RMK FCST BASED ON AUTO OBS. NXT FCST BY 262000Z



MET'MAP, la Météo Aéronautique d'un coup d'oeil ! - Copyright ORBIFLY Décembre 2007 - Disclaimer

ORBIFLY MET'MAP TEAM :

Programmation & Développement : Alexandra Zaïnal
Sur une idée originale de : Baudouin d'Aumeries
Assistance à la programmation : Marc-Olivier Méhu
Soutien technique & logistique : Manuel Goepfert

Contact : metmap@orbifly.com




SOURCES & CREDITS :

   NOAA